Wahoo, Nebraska
Current Conditions -  °F | °C
As of 8:35 PM on Saturday 20 Dec 2014 (Local Time) from KAHQ Reporting Station
Haze Haze  
Wind Chill: 28°   Ceiling: 600
Heat Index: 35°   Visibility: 5mi
Dew Point: 32°   Wind: 8mph
Humidity: 90%   Direction: 150°SSE
Pressure: 30.03"   Gusts: NA
Location:  41.21°N, 96.62°W
Report Text: KAHQ 210235Z AUTO 15007KT 5SM BR OVC006 02/00 A3003 RMK AO2 T00150000
Loading
Personal Weather Stations






























Interactive Weather Map New forecast layout! Learn more

10-Day Weather Forecast

Advertisements
Track Severe Weather on mobile